Time;durP1;ratioP1;P1;durP2;ratioP2;P2;SDS_P1;SDS_P2;PMS_P1;PMS_P2;Temp;Humidity;BMP_temperature;BMP_pressure;BME280_temperature;BME280_humidity;BME280_pressure;Samples;Min_cycle;Max_cycle;Signal;HPM_P1;HPM_P2
2022/12/05 00:00:24;;;;;;;21.50;11.38;;;6.10;75.50;;;;;;5018346;28;20190;-62
2022/12/05 00:02:50;;;;;;;25.40;13.00;;;6.10;75.40;;;;;;5017766;28;20101;-65
2022/12/05 00:05:15;;;;;;;21.92;12.50;;;6.10;75.30;;;;;;4999093;28;20084;-64
2022/12/05 00:07:41;;;;;;;22.60;13.18;;;6.00;75.30;;;;;;5015788;28;20026;-62
2022/12/05 00:10:07;;;;;;;25.75;13.80;;;6.00;75.30;;;;;;5002763;28;20064;-63
2022/12/05 00:12:33;;;;;;;24.33;13.85;;;6.00;75.20;;;;;;5018843;28;20034;-63
2022/12/05 00:14:58;;;;;;;24.98;14.07;;;6.00;75.20;;;;;;5014217;28;20022;-62
2022/12/05 00:17:24;;;;;;;27.38;14.18;;;5.90;75.20;;;;;;5014024;28;20337;-62
2022/12/05 00:19:50;;;;;;;23.33;12.98;;;5.90;75.40;;;;;;4953759;28;20021;-62
2022/12/05 00:22:15;;;;;;;21.30;12.38;;;5.90;75.40;;;;;;5018520;28;20030;-62
2022/12/05 00:24:41;;;;;;;21.17;12.82;;;5.80;75.50;;;;;;5018418;28;20053;-64
2022/12/05 00:27:07;;;;;;;23.63;12.95;;;5.80;75.50;;;;;;5014537;28;20393;-62
2022/12/05 00:29:32;;;;;;;20.80;12.68;;;5.80;75.60;;;;;;5009617;28;20030;-63
2022/12/05 00:31:58;;;;;;;21.38;11.80;;;5.80;75.70;;;;;;5015075;28;20085;-64
2022/12/05 00:34:24;;;;;;;22.00;11.98;;;5.80;75.80;;;;;;5018110;28;20022;-63
2022/12/05 00:36:49;;;;;;;20.88;11.55;;;5.90;76.00;;;;;;5016688;28;20081;-63
2022/12/05 00:39:15;;;;;;;22.63;12.18;;;5.80;75.90;;;;;;5017864;28;20030;-63
2022/12/05 00:41:43;;;;;;;20.23;11.85;;;5.90;76.00;;;;;;5004138;28;20486;-63
2022/12/05 00:44:10;;;;;;;16.75;10.63;;;5.90;75.80;;;;;;5016282;28;20057;-63
2022/12/05 00:46:36;;;;;;;19.92;10.77;;;5.90;75.70;;;;;;5011311;28;20041;-63
2022/12/05 00:49:04;;;;;;;17.95;10.77;;;5.90;75.60;;;;;;5018611;28;20029;-63
2022/12/05 00:51:35;;;;;;;18.05;10.20;;;5.90;75.60;;;;;;5015628;28;20022;-64
2022/12/05 00:54:04;;;;;;;17.08;10.15;;;5.90;75.70;;;;;;5015630;28;20042;-64
2022/12/05 00:56:31;;;;;;;17.83;10.07;;;5.90;75.50;;;;;;5016826;28;20033;-63
2022/12/05 00:58:58;;;;;;;17.25;10.60;;;5.90;75.50;;;;;;5017808;28;20029;-63
2022/12/05 01:01:31;;;;;;;17.90;11.25;;;5.80;75.50;;;;;;5019618;28;20037;-63
2022/12/05 01:04:01;;;;;;;18.83;10.85;;;5.80;75.40;;;;;;5019921;28;20030;-63
2022/12/05 01:06:27;;;;;;;19.23;10.98;;;5.80;75.40;;;;;;5017149;28;20381;-63
2022/12/05 01:08:55;;;;;;;19.98;11.65;;;5.90;75.40;;;;;;5012169;28;20030;-63
2022/12/05 01:11:22;;;;;;;21.67;10.40;;;5.80;75.20;;;;;;5015331;28;20459;-63
2022/12/05 01:13:48;;;;;;;19.15;10.88;;;5.80;75.20;;;;;;5020380;28;20018;-63
2022/12/05 01:16:20;;;;;;;20.58;11.10;;;5.80;75.20;;;;;;5023596;28;20419;-63
2022/12/05 01:18:46;;;;;;;19.60;10.68;;;5.80;75.20;;;;;;5023851;28;20366;-63
2022/12/05 01:21:12;;;;;;;20.30;10.77;;;5.70;75.20;;;;;;5005102;28;20373;-63
2022/12/05 01:23:38;;;;;;;20.05;10.40;;;5.70;75.20;;;;;;5013278;28;20030;-63
2022/12/05 01:26:07;;;;;;;20.50;11.02;;;5.70;75.20;;;;;;5004903;28;20034;-63
2022/12/05 01:28:34;;;;;;;19.73;10.85;;;5.60;75.20;;;;;;5019231;28;20033;-63
2022/12/05 01:31:05;;;;;;;19.15;10.77;;;5.60;75.30;;;;;;4999545;28;20081;-62
2022/12/05 01:33:31;;;;;;;18.50;10.55;;;5.60;75.40;;;;;;5021018;28;20044;-63
2022/12/05 01:35:57;;;;;;;19.52;12.18;;;5.60;75.40;;;;;;5007052;28;20033;-63
2022/12/05 01:38:23;;;;;;;18.70;10.73;;;5.60;75.40;;;;;;5021996;28;20030;-63
2022/12/05 01:40:48;;;;;;;17.63;10.60;;;5.50;75.40;;;;;;5022267;28;20033;-62
2022/12/05 01:43:17;;;;;;;18.65;9.77;;;5.50;75.40;;;;;;5023542;28;20026;-63
2022/12/05 01:45:45;;;;;;;18.05;9.95;;;5.50;75.50;;;;;;5015631;28;20117;-63
2022/12/05 01:48:17;;;;;;;14.98;9.73;;;5.50;75.50;;;;;;5015719;28;20065;-64
2022/12/05 01:50:44;;;;;;;18.55;9.75;;;5.50;75.50;;;;;;5010543;28;20477;-63
2022/12/05 01:53:09;;;;;;;14.50;8.65;;;5.50;75.50;;;;;;5012954;28;20026;-62
2022/12/05 01:55:36;;;;;;;13.95;8.55;;;5.40;75.60;;;;;;5009748;28;20031;-62
2022/12/05 01:58:04;;;;;;;17.02;9.85;;;5.40;75.60;;;;;;5014561;28;20072;-64
2022/12/05 02:00:29;;;;;;;16.20;9.02;;;5.40;75.50;;;;;;5018467;28;20022;-62
2022/12/05 02:02:58;;;;;;;15.88;8.80;;;5.40;75.50;;;;;;5000211;28;20022;-63
2022/12/05 02:05:30;;;;;;;15.10;8.95;;;5.40;75.40;;;;;;5015097;28;20121;-62
2022/12/05 02:07:58;;;;;;;14.63;8.77;;;5.40;75.40;;;;;;5017454;28;20034;-61
2022/12/05 02:10:25;;;;;;;17.50;9.07;;;5.30;75.40;;;;;;4994098;28;20057;-62
2022/12/05 02:12:51;;;;;;;17.45;9.05;;;5.30;75.50;;;;;;5018941;28;20014;-62
2022/12/05 02:15:44;;;;;;;14.05;8.43;;;5.30;75.40;;;;;;5003259;28;20061;-63
2022/12/05 02:18:38;;;;;;;14.90;8.27;;;5.30;75.40;;;;;;5012232;28;20425;-65
2022/12/05 02:21:42;;;;;;;21.35;8.82;;;5.30;75.50;;;;;;4986945;28;20093;-63
2022/12/05 02:24:51;;;;;;;13.65;7.85;;;5.30;75.60;;;;;;5012011;28;20113;-63
2022/12/05 02:27:48;;;;;;;12.43;7.90;;;5.30;75.70;;;;;;5011744;28;20038;-62
2022/12/05 02:30:19;;;;;;;14.00;8.20;;;5.30;75.60;;;;;;5012107;28;20042;-63
2022/12/05 02:33:12;;;;;;;13.15;8.48;;;5.20;75.40;;;;;;5021742;28;20077;-63
2022/12/05 02:36:04;;;;;;;13.23;8.57;;;5.20;75.40;;;;;;5020882;28;20617;-63
2022/12/05 02:38:36;;;;;;;10.40;6.53;;;5.20;75.40;;;;;;5006242;28;20034;-62
2022/12/05 02:41:30;;;;;;;12.73;7.68;;;5.20;75.40;;;;;;5014282;28;20026;-63
2022/12/05 02:43:58;;;;;;;9.43;6.10;;;5.10;75.20;;;;;;5018455;28;20022;-62
2022/12/05 02:46:28;;;;;;;11.00;7.43;;;5.10;75.10;;;;;;5022314;28;20057;-62
2022/12/05 02:49:02;;;;;;;13.98;8.20;;;5.10;75.10;;;;;;5019239;28;20065;-62
2022/12/05 02:51:33;;;;;;;9.35;5.47;;;5.00;75.30;;;;;;5010246;28;20022;-62
2022/12/05 02:54:03;;;;;;;11.68;7.28;;;5.00;75.40;;;;;;5016372;28;20030;-63
2022/12/05 02:56:31;;;;;;;11.25;6.93;;;5.00;75.60;;;;;;5017855;28;20030;-63
2022/12/05 02:58:57;;;;;;;9.98;6.65;;;5.00;75.80;;;;;;5012045;28;20058;-63
2022/12/05 03:01:27;;;;;;;11.80;7.10;;;5.00;75.90;;;;;;4998778;28;20034;-63
2022/12/05 03:03:55;;;;;;;11.80;7.57;;;5.00;75.90;;;;;;5021677;28;20049;-62
2022/12/05 03:06:28;;;;;;;11.15;6.78;;;5.10;75.80;;;;;;5018440;28;20025;-63
2022/12/05 03:09:00;;;;;;;13.03;8.17;;;5.10;75.70;;;;;;5019748;28;20028;-62
2022/12/05 03:11:30;;;;;;;12.75;7.22;;;5.10;75.70;;;;;;5019823;28;20062;-63
2022/12/05 03:13:58;;;;;;;12.52;7.47;;;5.10;75.60;;;;;;5022523;28;20026;-62
2022/12/05 03:16:47;;;;;;;13.20;7.20;;;5.10;75.60;;;;;;5020664;28;20049;-62
2022/12/05 03:19:23;;;;;;;13.15;7.20;;;5.10;75.60;;;;;;5018625;28;20033;-62
2022/12/05 03:21:56;;;;;;;12.40;7.45;;;5.10;75.60;;;;;;5018997;28;20034;-62
2022/12/05 03:24:22;;;;;;;9.32;5.63;;;5.10;75.60;;;;;;5020990;28;20454;-62
2022/12/05 03:27:14;;;;;;;12.50;7.75;;;5.10;75.60;;;;;;5021229;28;20061;-62
2022/12/05 03:30:00;;;;;;;12.98;8.13;;;5.10;75.60;;;;;;5016085;28;20037;-62
2022/12/05 03:32:53;;;;;;;12.00;7.30;;;5.10;75.50;;;;;;5017713;28;20021;-62
2022/12/05 03:35:37;;;;;;;12.68;7.68;;;5.10;75.50;;;;;;5017101;28;20026;-63
2022/12/05 03:38:18;;;;;;;11.87;7.87;;;5.10;75.50;;;;;;5020004;28;20128;-64
2022/12/05 03:40:51;;;;;;;12.98;8.18;;;5.10;75.50;;;;;;5020700;28;20288;-63
2022/12/05 03:43:41;;;;;;;13.40;7.60;;;5.10;75.50;;;;;;5013424;28;20038;-63
2022/12/05 03:46:24;;;;;;;15.00;8.25;;;5.10;75.70;;;;;;5014906;28;20532;-63
2022/12/05 03:48:54;;;;;;;14.30;7.97;;;5.10;75.80;;;;;;5000955;28;20421;-61
2022/12/05 03:51:24;;;;;;;13.85;8.10;;;5.10;75.80;;;;;;5022800;28;20026;-61
2022/12/05 03:54:01;;;;;;;13.43;7.80;;;5.10;75.80;;;;;;5018438;28;20031;-61
2022/12/05 03:56:32;;;;;;;12.68;7.82;;;5.20;75.80;;;;;;5016056;28;20477;-61
2022/12/05 03:59:06;;;;;;;13.20;7.38;;;5.20;75.80;;;;;;5019478;28;20060;-62
2022/12/05 04:01:34;;;;;;;10.05;6.05;;;5.20;75.80;;;;;;5018898;28;20022;-62
2022/12/05 04:04:09;;;;;;;14.60;7.95;;;5.30;75.70;;;;;;5019331;28;20042;-62
2022/12/05 04:06:36;;;;;;;;;;;5.30;75.60;;;;;;5020811;28;20065;-61
2022/12/05 04:09:08;;;;;;;9.82;6.30;;;5.30;75.50;;;;;;4999107;28;19937;-61
2022/12/05 04:11:38;;;;;;;13.05;7.13;;;5.30;75.40;;;;;;5014764;28;20042;-61
2022/12/05 04:14:12;;;;;;;15.05;7.82;;;5.30;75.50;;;;;;5013569;28;20034;-62
2022/12/05 04:17:03;;;;;;;14.13;7.43;;;5.30;75.50;;;;;;5014617;28;20030;-61
2022/12/05 04:22:38;;;;;;;14.15;7.70;;;5.40;75.50;;;;;;5014088;28;20053;-62
2022/12/05 04:27:58;;;;;;;13.93;7.95;;;5.30;75.50;;;;;;5017344;28;20057;-62
2022/12/05 04:30:29;;;;;;;16.17;8.60;;;5.30;75.60;;;;;;5014842;28;20030;-61
2022/12/05 04:33:27;;;;;;;17.27;8.55;;;5.40;75.70;;;;;;5016431;28;20492;-63
2022/12/05 04:36:00;;;;;;;14.02;8.55;;;5.40;75.60;;;;;;4985406;28;20046;-62
2022/12/05 04:38:33;;;;;;;16.25;8.68;;;5.40;75.60;;;;;;5017975;28;20040;-62
2022/12/05 04:41:06;;;;;;;16.37;9.07;;;5.40;75.70;;;;;;4999355;28;20037;-62
2022/12/05 04:43:36;;;;;;;16.05;8.68;;;5.40;75.70;;;;;;5014224;28;20081;-62
2022/12/05 04:46:04;;;;;;;17.90;9.70;;;5.50;75.80;;;;;;5017940;28;20109;-62
2022/12/05 04:48:34;;;;;;;19.98;9.68;;;5.50;75.80;;;;;;5011669;28;20022;-63
2022/12/05 04:51:01;;;;;;;25.90;10.75;;;5.50;75.70;;;;;;5016774;28;20033;-62
2022/12/05 04:53:30;;;;;;;22.55;10.93;;;5.50;75.50;;;;;;5019265;28;21025;-63
2022/12/05 04:55:59;;;;;;;21.17;10.63;;;5.60;75.50;;;;;;5019143;28;20038;-63
2022/12/05 04:58:26;;;;;;;24.08;10.52;;;5.50;75.50;;;;;;5017423;28;20026;-62
2022/12/05 05:01:08;;;;;;;23.75;10.98;;;5.50;75.50;;;;;;5015461;28;20025;-64
2022/12/05 05:03:37;;;;;;;25.85;10.65;;;5.60;75.50;;;;;;4999480;28;20130;-63
2022/12/05 05:06:04;;;;;;;24.67;11.35;;;5.60;75.40;;;;;;5018712;28;20034;-62
2022/12/05 05:08:29;;;;;;;27.45;11.10;;;5.60;75.60;;;;;;5017011;28;20148;-62
2022/12/05 05:11:17;;;;;;;26.35;11.43;;;5.60;75.60;;;;;;5016662;28;20056;-63
2022/12/05 05:13:43;;;;;;;27.90;11.65;;;5.60;75.50;;;;;;5012562;28;20033;-63
2022/12/05 05:16:17;;;;;;;33.65;11.98;;;5.70;75.50;;;;;;5013994;28;20031;-63
2022/12/05 05:18:48;;;;;;;32.22;13.13;;;5.70;75.50;;;;;;4921842;28;20537;-65
2022/12/05 05:21:30;;;;;;;29.58;11.98;;;5.70;75.50;;;;;;5004755;28;20033;-64
2022/12/05 05:23:57;;;;;;;30.23;11.70;;;5.70;75.40;;;;;;5011559;28;21231;-62
2022/12/05 05:26:24;;;;;;;29.42;12.07;;;5.70;75.50;;;;;;5015090;28;20057;-64
2022/12/05 05:28:50;;;;;;;31.00;12.35;;;5.70;75.40;;;;;;5011055;28;20019;-64
2022/12/05 05:31:17;;;;;;;33.33;13.30;;;5.80;75.50;;;;;;5014908;28;20019;-64
2022/12/05 05:33:43;;;;;;;31.40;12.18;;;5.80;75.40;;;;;;5019472;28;20030;-64
2022/12/05 05:36:13;;;;;;;32.33;13.15;;;5.80;75.30;;;;;;5012093;28;20044;-63
2022/12/05 05:38:44;;;;;;;31.83;12.30;;;5.80;75.30;;;;;;5012728;28;20076;-63
2022/12/05 05:41:25;;;;;;;31.48;12.63;;;5.80;75.30;;;;;;5016823;28;20033;-64
2022/12/05 05:43:51;;;;;;;29.95;13.15;;;5.80;75.30;;;;;;5016471;28;20053;-63
2022/12/05 05:46:19;;;;;;;34.00;17.27;;;5.70;75.20;;;;;;5017968;28;20061;-63
2022/12/05 05:48:45;;;;;;;30.25;13.90;;;5.70;75.30;;;;;;5016316;28;20022;-63
2022/12/05 05:51:12;;;;;;;32.13;14.52;;;5.70;75.40;;;;;;4993643;28;20040;-63
2022/12/05 05:53:38;;;;;;;30.20;13.40;;;5.70;75.40;;;;;;5022164;28;20059;-63
2022/12/05 05:56:09;;;;;;;33.75;13.18;;;5.70;75.30;;;;;;5022477;28;20025;-63
2022/12/05 05:58:35;;;;;;;24.02;12.43;;;5.70;75.50;;;;;;5020395;28;20032;-64
2022/12/05 06:01:08;;;;;;;25.90;13.15;;;5.70;75.50;;;;;;5017069;28;20026;-62
2022/12/05 06:03:34;;;;;;;28.95;13.25;;;5.70;75.50;;;;;;5018173;28;20040;-63
2022/12/05 06:06:03;;;;;;;26.50;13.25;;;5.70;75.50;;;;;;5011668;28;20080;-63
2022/12/05 06:08:33;;;;;;;29.63;14.43;;;5.70;75.50;;;;;;5023838;28;20021;-62
2022/12/05 06:10:59;;;;;;;26.48;12.35;;;5.70;75.50;;;;;;5003183;28;20042;-62
2022/12/05 06:13:26;;;;;;;30.30;13.07;;;5.70;75.40;;;;;;4999914;28;20410;-63
2022/12/05 06:15:52;;;;;;;25.55;13.05;;;5.70;75.50;;;;;;4994851;28;20362;-64
2022/12/05 06:18:31;;;;;;;27.15;12.55;;;5.70;75.70;;;;;;5002970;28;20037;-61
2022/12/05 06:20:57;;;;;;;26.08;12.82;;;5.50;75.50;;;;;;4992433;28;20026;-61
2022/12/05 06:23:24;;;;;;;22.77;12.30;;;5.70;75.70;;;;;;4999141;28;20105;-62
2022/12/05 06:25:54;;;;;;;24.15;12.55;;;5.60;75.60;;;;;;5000641;28;20081;-61
2022/12/05 06:28:22;;;;;;;24.92;11.80;;;5.70;75.80;;;;;;5001564;28;20029;-63
2022/12/05 06:30:47;;;;;;;25.40;13.15;;;5.60;75.80;;;;;;4991106;28;20037;-61
2022/12/05 06:33:14;;;;;;;25.52;12.32;;;5.60;75.90;;;;;;4992111;28;20405;-63
2022/12/05 06:35:39;;;;;;;27.33;12.50;;;5.60;76.00;;;;;;4991301;28;20113;-63
2022/12/05 06:38:06;;;;;;;26.77;13.63;;;5.60;76.00;;;;;;4999419;28;20054;-63
2022/12/05 06:40:32;;;;;;;28.75;13.25;;;5.60;76.00;;;;;;4994071;28;20381;-62
2022/12/05 06:42:58;;;;;;;26.90;13.50;;;5.70;76.20;;;;;;5004229;28;20062;-62
2022/12/05 06:45:24;;;;;;;26.50;13.48;;;5.70;76.00;;;;;;5005068;28;20034;-63
2022/12/05 06:47:51;;;;;;;26.35;13.32;;;5.70;76.10;;;;;;4981570;28;20022;-62
2022/12/05 06:50:16;;;;;;;29.95;14.88;;;5.60;76.10;;;;;;5002134;28;20031;-62
2022/12/05 06:52:42;;;;;;;30.10;13.15;;;5.60;76.20;;;;;;4990642;28;20083;-62
2022/12/05 06:55:08;;;;;;;26.63;13.85;;;5.60;76.20;;;;;;5001128;28;20073;-61
2022/12/05 06:57:34;;;;;;;27.45;12.98;;;5.60;76.20;;;;;;5005743;28;20082;-62
2022/12/05 07:01:37;;;;;;;30.23;14.70;;;5.70;76.30;;;;;;4988426;28;20065;-60
2022/12/05 07:02:45;;;;;;;31.85;15.40;;;5.60;76.20;;;;;;4998489;28;20037;-61
2022/12/05 07:05:11;;;;;;;29.52;13.57;;;5.70;76.20;;;;;;4997059;28;20042;-62
2022/12/05 07:07:37;;;;;;;26.23;13.57;;;5.70;76.30;;;;;;4997336;28;20030;-61
2022/12/05 07:10:04;;;;;;;29.23;14.35;;;5.70;76.30;;;;;;5018060;28;20048;-62
2022/12/05 07:12:32;;;;;;;26.75;13.73;;;5.60;76.40;;;;;;5048983;28;20761;-61
2022/12/05 07:14:57;;;;;;;30.90;14.23;;;5.60;76.40;;;;;;5028480;28;20095;-61
2022/12/05 07:17:23;;;;;;;29.98;14.60;;;5.70;76.40;;;;;;5041576;28;20064;-62
2022/12/05 07:19:50;;;;;;;32.38;15.18;;;5.60;76.30;;;;;;4961828;28;20078;-62
2022/12/05 07:22:17;;;;;;;29.38;14.57;;;5.70;76.20;;;;;;5036725;28;20473;-61
2022/12/05 07:24:44;;;;;;;29.38;14.98;;;5.70;76.30;;;;;;5041382;28;20045;-61
2022/12/05 07:27:10;;;;;;;30.67;14.60;;;5.60;76.20;;;;;;5024328;28;20031;-63
2022/12/05 07:29:35;;;;;;;31.42;14.20;;;5.60;76.30;;;;;;5040941;28;20053;-63
2022/12/05 07:32:01;;;;;;;28.40;14.55;;;5.60;76.40;;;;;;5034273;28;20037;-63
2022/12/05 07:34:27;;;;;;;29.25;14.40;;;5.70;76.60;;;;;;5037505;28;20033;-62
2022/12/05 07:36:53;;;;;;;27.75;13.85;;;5.60;76.50;;;;;;5036153;28;20080;-61
2022/12/05 07:39:18;;;;;;;33.05;15.80;;;5.60;76.50;;;;;;5026019;28;20403;-62
2022/12/05 07:41:44;;;;;;;25.40;13.20;;;5.60;76.50;;;;;;5041023;28;20076;-61
2022/12/05 07:44:11;;;;;;;29.52;14.45;;;5.60;76.50;;;;;;5020547;28;20029;-62
2022/12/05 07:46:38;;;;;;;29.10;14.85;;;5.60;76.40;;;;;;5036727;28;20033;-62
2022/12/05 07:49:03;;;;;;;25.48;13.82;;;5.90;76.80;;;;;;5038633;28;20088;-62
2022/12/05 07:51:29;;;;;;;28.67;14.77;;;5.70;76.60;;;;;;5037639;28;20117;-61
2022/12/05 07:53:57;;;;;;;27.65;14.55;;;5.70;76.70;;;;;;5030309;28;20029;-63
2022/12/05 07:56:22;;;;;;;27.73;13.88;;;5.70;76.90;;;;;;5040298;28;20033;-65
2022/12/05 07:58:49;;;;;;;26.48;14.07;;;5.70;76.80;;;;;;5045466;28;20117;-63
2022/12/05 08:01:26;;;;;;;28.38;15.27;;;5.80;76.80;;;;;;5048727;28;20029;-63
2022/12/05 08:03:53;;;;;;;25.65;13.02;;;5.80;76.80;;;;;;5038938;28;20031;-63
2022/12/05 08:06:23;;;;;;;24.67;13.05;;;5.80;76.70;;;;;;5046971;28;20282;-64
2022/12/05 08:08:50;;;;;;;29.10;13.57;;;5.90;76.50;;;;;;5035695;28;20018;-62
2022/12/05 08:11:29;;;;;;;24.38;13.18;;;5.90;76.40;;;;;;5032889;28;20056;-62
2022/12/05 08:13:56;;;;;;;25.02;13.75;;;5.90;76.30;;;;;;5036906;28;20017;-63
2022/12/05 08:16:24;;;;;;;27.55;12.75;;;6.00;76.30;;;;;;5038584;28;20021;-63
2022/12/05 08:18:55;;;;;;;28.15;13.05;;;6.00;76.40;;;;;;5039232;28;20021;-62
2022/12/05 08:21:21;;;;;;;26.48;13.23;;;6.00;76.40;;;;;;5035017;28;20033;-63
2022/12/05 08:23:47;;;;;;;26.58;13.27;;;6.10;76.40;;;;;;5040258;28;20025;-62
2022/12/05 08:26:15;;;;;;;30.25;14.77;;;6.10;76.20;;;;;;5021701;28;20117;-62
2022/12/05 08:28:42;;;;;;;28.90;15.63;;;6.10;76.20;;;;;;5037773;28;20022;-61
2022/12/05 08:31:16;;;;;;;28.90;13.93;;;6.20;76.90;;;;;;5043241;28;20056;-64
2022/12/05 08:33:42;;;;;;;26.02;13.65;;;6.20;76.30;;;;;;5041655;28;20049;-62
2022/12/05 08:36:12;;;;;;;24.65;12.55;;;6.20;76.30;;;;;;5039095;28;20089;-62
2022/12/05 08:38:37;;;;;;;31.75;12.10;;;6.30;76.40;;;;;;5040514;28;20033;-62
2022/12/05 08:41:06;;;;;;;27.70;12.45;;;6.30;76.40;;;;;;5036536;28;20040;-63
2022/12/05 08:43:32;;;;;;;24.20;12.15;;;6.40;76.30;;;;;;5041878;28;20115;-61
2022/12/05 08:45:58;;;;;;;24.70;11.63;;;6.40;76.10;;;;;;5041001;28;20060;-61
2022/12/05 08:48:24;;;;;;;28.58;11.35;;;6.50;76.00;;;;;;5040597;28;20118;-63
2022/12/05 08:50:50;;;;;;;22.08;11.73;;;6.50;76.00;;;;;;5046967;28;20069;-61
2022/12/05 08:53:16;;;;;;;23.67;11.77;;;6.60;76.00;;;;;;5033613;28;20045;-62
2022/12/05 08:55:42;;;;;;;20.45;11.52;;;6.60;75.90;;;;;;5041321;28;20025;-64
2022/12/05 08:58:08;;;;;;;19.50;10.73;;;6.60;75.80;;;;;;5047133;28;20077;-63
2022/12/05 09:00:34;;;;;;;18.95;10.77;;;6.70;75.80;;;;;;5042555;28;20025;-63
2022/12/05 09:02:59;;;;;;;17.48;9.88;;;6.70;75.70;;;;;;5039062;28;20113;-63
2022/12/05 09:05:25;;;;;;;18.40;10.60;;;6.80;75.70;;;;;;5039298;28;20608;-63
2022/12/05 09:07:51;;;;;;;22.23;10.70;;;6.80;75.50;;;;;;5035077;28;20034;-63
2022/12/05 09:10:17;;;;;;;20.10;10.57;;;6.80;75.30;;;;;;5023754;28;20055;-63
2022/12/05 09:12:43;;;;;;;24.33;10.32;;;6.80;75.20;;;;;;5033637;28;20030;-63
2022/12/05 09:15:10;;;;;;;22.25;10.27;;;6.90;75.30;;;;;;5046625;28;20030;-63
2022/12/05 09:17:37;;;;;;;17.25;10.02;;;6.90;75.20;;;;;;5041972;28;20108;-63
2022/12/05 09:20:04;;;;;;;17.65;9.32;;;6.90;75.10;;;;;;5026077;28;20029;-63
2022/12/05 09:22:29;;;;;;;16.20;8.55;;;6.90;75.00;;;;;;5039427;28;20033;-63
2022/12/05 09:24:55;;;;;;;14.13;8.32;;;6.90;74.80;;;;;;5024750;28;20033;-63
2022/12/05 09:27:21;;;;;;;16.20;9.02;;;6.90;74.80;;;;;;5038146;28;20033;-63
2022/12/05 09:29:46;;;;;;;13.95;8.65;;;6.90;74.80;;;;;;5043460;28;20037;-63
2022/12/05 09:32:12;;;;;;;14.18;8.85;;;7.00;74.90;;;;;;5047584;28;20101;-62
2022/12/05 09:34:38;;;;;;;17.23;8.52;;;6.90;74.90;;;;;;5048962;28;20081;-63
2022/12/05 09:37:05;;;;;;;13.13;7.95;;;7.00;74.80;;;;;;5019200;28;20029;-63
2022/12/05 09:39:31;;;;;;;19.45;8.77;;;7.00;74.70;;;;;;5039392;28;20048;-63
2022/12/05 09:42:09;;;;;;;13.35;8.30;;;7.00;74.70;;;;;;5041141;28;20075;-63
2022/12/05 09:44:54;;;;;;;12.60;7.85;;;7.00;74.70;;;;;;5043724;28;20034;-63
2022/12/05 09:47:25;;;;;;;13.48;8.68;;;7.00;74.60;;;;;;5035311;28;20017;-63
2022/12/05 09:50:14;;;;;;;11.82;8.38;;;7.00;74.60;;;;;;5035310;28;20030;-61
2022/12/05 09:53:01;;;;;;;11.00;7.38;;;7.10;74.60;;;;;;5033616;28;20104;-61
2022/12/05 09:55:53;;;;;;;11.32;6.90;;;7.10;74.50;;;;;;5037541;28;20089;-61
2022/12/05 09:58:22;;;;;;;10.45;7.00;;;7.10;74.40;;;;;;5033737;28;20385;-61
2022/12/05 10:00:53;;;;;;;9.13;6.38;;;7.10;74.60;;;;;;5038624;28;20025;-62
2022/12/05 10:03:33;;;;;;;12.30;7.18;;;7.10;74.50;;;;;;5025074;28;20029;-62
2022/12/05 10:06:12;;;;;;;11.27;7.38;;;7.10;74.30;;;;;;5036240;28;20047;-61
2022/12/05 10:08:47;;;;;;;11.27;7.22;;;7.20;74.40;;;;;;5045446;28;20025;-63
2022/12/05 10:11:16;;;;;;;;;;;7.20;74.70;;;;;;5041207;28;20053;-60
2022/12/05 10:13:47;;;;;;;8.88;5.75;;;7.20;74.60;;;;;;5045674;28;19916;-61
2022/12/05 10:16:20;;;;;;;10.05;6.25;;;7.30;74.80;;;;;;5042541;28;20052;-61
2022/12/05 10:18:53;;;;;;;12.63;6.65;;;7.30;74.70;;;;;;5032917;28;20460;-61
2022/12/05 10:21:30;;;;;;;13.90;6.68;;;7.30;74.60;;;;;;5037005;28;20057;-61
2022/12/05 10:24:00;;;;;;;15.77;7.35;;;7.40;74.60;;;;;;5044129;28;20033;-61
2022/12/05 10:26:33;;;;;;;13.57;7.93;;;7.40;74.60;;;;;;5029031;28;20033;-63
2022/12/05 10:29:12;;;;;;;11.40;7.35;;;7.50;74.60;;;;;;5029644;28;20030;-63
2022/12/05 10:31:41;;;;;;;28.60;8.50;;;7.50;74.40;;;;;;5033080;28;20100;-63
2022/12/05 10:34:17;;;;;;;31.63;16.40;;;7.50;74.50;;;;;;5040566;28;20083;-63
2022/12/05 10:37:10;;;;;;;18.25;11.63;;;7.50;74.30;;;;;;5041614;28;20051;-62
2022/12/05 10:39:36;;;;;;;14.15;9.15;;;7.60;74.40;;;;;;5043104;28;20040;-62
2022/12/05 10:42:03;;;;;;;13.27;8.55;;;7.60;74.50;;;;;;5035184;28;20029;-61
2022/12/05 10:44:30;;;;;;;11.68;8.20;;;7.70;74.60;;;;;;5040895;28;21614;-62
2022/12/05 10:46:55;;;;;;;10.40;7.10;;;7.70;74.40;;;;;;5040515;28;20100;-61
2022/12/05 10:49:22;;;;;;;11.10;7.50;;;7.70;74.40;;;;;;5033108;28;20419;-61
2022/12/05 10:51:48;;;;;;;15.45;7.88;;;7.80;74.30;;;;;;5038414;28;20026;-61
2022/12/05 10:54:22;;;;;;;15.82;8.13;;;7.80;74.30;;;;;;5033108;28;20029;-63
2022/12/05 10:56:50;;;;;;;10.98;7.78;;;7.90;74.10;;;;;;5036969;28;20027;-63
2022/12/05 10:59:18;;;;;;;10.98;7.63;;;7.90;74.10;;;;;;5029804;28;20180;-61
2022/12/05 11:01:47;;;;;;;11.00;7.60;;;7.90;74.00;;;;;;5038976;28;20025;-62
2022/12/05 11:04:40;;;;;;;12.68;7.38;;;7.90;73.90;;;;;;5041313;28;20044;-62
2022/12/05 11:07:06;;;;;;;12.77;7.95;;;8.00;73.70;;;;;;5041251;28;20042;-62
2022/12/05 11:09:35;;;;;;;12.13;7.82;;;8.00;73.90;;;;;;5044372;28;20028;-64
2022/12/05 11:12:17;;;;;;;12.55;8.02;;;8.10;73.90;;;;;;5037220;28;20049;-63
2022/12/05 11:14:58;;;;;;;12.68;8.13;;;8.10;73.60;;;;;;5039718;28;20028;-64
2022/12/05 11:17:30;;;;;;;18.88;7.55;;;8.10;73.60;;;;;;5039234;28;20017;-64
2022/12/05 11:19:56;;;;;;;9.30;6.85;;;8.20;73.70;;;;;;5036735;28;20051;-62
2022/12/05 11:22:32;;;;;;;11.05;7.55;;;8.20;73.70;;;;;;5022767;28;20029;-64
2022/12/05 11:24:58;;;;;;;11.50;7.60;;;8.20;73.30;;;;;;5039869;28;20040;-63
2022/12/05 11:27:30;;;;;;;12.52;6.95;;;8.30;73.40;;;;;;5041430;28;20029;-61
2022/12/05 11:30:11;;;;;;;11.70;7.30;;;8.30;73.20;;;;;;5031662;28;20032;-64
2022/12/05 11:32:38;;;;;;;13.63;7.53;;;8.30;73.30;;;;;;5027560;28;20033;-62
2022/12/05 11:35:07;;;;;;;9.40;6.82;;;8.30;73.30;;;;;;5042215;28;20071;-62
2022/12/05 11:37:53;;;;;;;12.80;8.25;;;8.30;73.20;;;;;;5040390;28;20017;-63
2022/12/05 11:40:57;;;;;;;15.05;8.95;;;8.30;72.80;;;;;;5047537;28;20114;-61
2022/12/05 11:43:59;;;;;;;14.85;8.40;;;8.40;72.90;;;;;;5048391;28;20033;-62
2022/12/05 11:46:33;;;;;;;12.30;7.85;;;8.40;72.80;;;;;;5048858;28;20052;-62
2022/12/05 11:49:07;;;;;;;14.48;8.52;;;8.40;73.00;;;;;;5033276;28;20030;-63
2022/12/05 11:51:38;;;;;;;10.13;6.07;;;8.40;73.10;;;;;;5039095;28;20120;-62
2022/12/05 11:54:28;;;;;;;13.25;9.13;;;8.40;72.90;;;;;;5037514;28;20026;-62
2022/12/05 11:56:58;;;;;;;12.63;8.32;;;8.40;72.70;;;;;;5032509;28;20488;-61
2022/12/05 11:59:23;;;;;;;13.65;8.50;;;8.40;72.80;;;;;;5033062;28;20037;-62
2022/12/05 12:02:19;;;;;;;21.40;14.43;;;8.40;72.90;;;;;;5039367;28;20048;-61
2022/12/05 12:05:03;;;;;;;14.95;8.50;;;8.40;72.50;;;;;;5037630;28;20037;-62
2022/12/05 12:08:07;;;;;;;13.90;7.65;;;8.40;72.50;;;;;;5043026;28;20360;-62
2022/12/05 12:10:42;;;;;;;14.38;7.07;;;8.40;72.60;;;;;;5041487;28;20100;-62
2022/12/05 12:13:26;;;;;;;11.52;6.78;;;8.50;73.10;;;;;;5018025;28;20140;-62
2022/12/05 12:16:09;;;;;;;10.88;7.18;;;8.50;73.00;;;;;;5040461;28;20056;-62
2022/12/05 12:18:53;;;;;;;10.25;6.85;;;8.50;72.50;;;;;;4992558;28;20479;-63
2022/12/05 12:21:25;;;;;;;10.63;7.18;;;8.50;72.80;;;;;;5047911;28;20112;-62
2022/12/05 12:24:23;;;;;;;9.60;6.55;;;8.60;73.00;;;;;;5044305;28;20033;-62
2022/12/05 12:27:13;;;;;;;11.85;7.55;;;8.60;72.40;;;;;;5035400;28;20065;-62
2022/12/05 12:29:40;;;;;;;10.93;7.65;;;8.60;72.00;;;;;;5001369;28;20030;-62
2022/12/05 12:32:14;;;;;;;11.52;6.97;;;8.60;72.50;;;;;;4995453;28;20046;-62
2022/12/05 12:34:58;;;;;;;12.88;7.28;;;8.70;72.50;;;;;;4998491;28;20088;-63
2022/12/05 12:37:57;;;;;;;13.93;8.30;;;8.70;72.00;;;;;;5009545;28;20885;-62
2022/12/05 12:40:42;;;;;;;20.23;10.02;;;8.70;72.10;;;;;;4992007;28;20073;-62
2022/12/05 12:43:19;;;;;;;16.15;9.75;;;8.70;72.40;;;;;;4978446;28;20034;-62
2022/12/05 12:46:03;;;;;;;12.02;7.53;;;8.70;72.40;;;;;;4990290;28;20119;-63
2022/12/05 12:49:01;;;;;;;11.23;7.13;;;8.70;72.00;;;;;;4999838;28;20093;-63
2022/12/05 12:51:30;;;;;;;10.48;5.78;;;8.70;71.70;;;;;;5001885;28;20050;-63
2022/12/05 12:54:03;;;;;;;9.10;6.22;;;8.70;72.10;;;;;;5003646;28;20856;-64
2022/12/05 12:56:38;;;;;;;25.67;6.28;;;8.90;72.30;;;;;;4993064;28;20049;-63
2022/12/05 12:59:12;;;;;;;10.30;6.35;;;8.70;71.80;;;;;;5006389;28;20030;-63
2022/12/05 13:01:43;;;;;;;9.70;6.75;;;8.70;72.00;;;;;;5003929;28;20018;-62
2022/12/05 13:04:14;;;;;;;13.65;7.70;;;8.70;72.00;;;;;;4996364;28;20042;-62
2022/12/05 13:06:56;;;;;;;15.25;7.85;;;8.70;72.10;;;;;;5026028;28;20083;-62
2022/12/05 13:09:29;;;;;;;14.32;8.57;;;8.70;71.90;;;;;;5045563;28;20017;-62
2022/12/05 13:11:59;;;;;;;15.30;9.15;;;8.70;72.10;;;;;;5042022;28;20071;-61